Time;durP1;ratioP1;P1;durP2;ratioP2;P2;SDS_P1;SDS_P2;PMS_P1;PMS_P2;Temp;Humidity;BMP_temperature;BMP_pressure;BME280_temperature;BME280_humidity;BME280_pressure;Samples;Min_cycle;Max_cycle;Signal;HPM_P1;HPM_P2
2022/10/20 00:01:56;;;;;;;34.25;17.13;;;;;;;12.95;80.73;100348.75;5015226;28;20044;-88
2022/10/20 00:04:23;;;;;;;34.42;15.27;;;;;;;13.00;80.23;100346.53;5014054;28;20047;-88
2022/10/20 00:06:50;;;;;;;34.63;15.65;;;;;;;13.01;80.05;100340.22;5014809;28;20115;-89
2022/10/20 00:09:17;;;;;;;33.53;15.45;;;;;;;12.96;79.44;100337.13;5027319;28;20131;-88
2022/10/20 00:11:44;;;;;;;29.50;14.88;;;;;;;13.07;79.73;100337.00;5046975;28;20098;-88
2022/10/20 00:14:11;;;;;;;30.00;14.65;;;;;;;12.98;79.64;100335.19;5032384;28;20496;-88
2022/10/20 00:16:38;;;;;;;32.33;15.57;;;;;;;13.13;79.44;100343.63;5011038;28;20098;-88
2022/10/20 00:19:05;;;;;;;28.23;14.05;;;;;;;13.10;79.13;100342.06;5015415;28;20393;-88
2022/10/20 00:21:32;;;;;;;31.30;15.82;;;;;;;13.02;78.74;100337.41;5047591;28;20480;-88
2022/10/20 00:24:00;;;;;;;31.85;15.15;;;;;;;12.96;78.79;100337.97;5015218;28;20127;-88
2022/10/20 00:26:28;;;;;;;28.13;14.23;;;;;;;12.88;78.94;100335.16;5027235;28;20049;-89
2022/10/20 00:28:55;;;;;;;33.45;15.45;;;;;;;12.98;79.01;100335.19;5010731;28;20050;-88
2022/10/20 00:31:23;;;;;;;30.10;15.18;;;;;;;12.83;78.94;100340.06;5031300;28;20393;-87
2022/10/20 00:33:50;;;;;;;31.92;15.27;;;;;;;12.88;79.14;100329.00;5027319;28;20041;-87
2022/10/20 00:36:18;;;;;;;27.83;15.15;;;;;;;12.79;78.68;100326.16;5036575;28;20037;-87
2022/10/20 00:38:45;;;;;;;27.77;15.18;;;;;;;12.70;79.29;100328.84;5032622;28;20393;-87
2022/10/20 00:41:17;;;;;;;24.15;13.02;;;;;;;12.74;78.28;100331.06;5019734;28;20490;-86
2022/10/20 00:43:46;;;;;;;31.95;15.02;;;;;;;12.64;78.95;100326.69;5027326;28;20037;-87
2022/10/20 00:46:19;;;;;;;31.92;15.95;;;;;;;12.53;79.23;100314.34;5056792;28;20040;-86
2022/10/20 00:48:49;;;;;;;27.08;14.55;;;;;;;12.54;79.41;100318.69;5033269;28;20095;-87
2022/10/20 00:51:19;;;;;;;31.35;14.77;;;;;;;12.65;78.97;100315.09;5034044;28;20049;-87
2022/10/20 00:53:48;;;;;;;32.63;13.70;;;;;;;12.71;78.70;100310.03;5005222;28;20408;-87
2022/10/20 00:56:14;;;;;;;29.67;14.25;;;;;;;12.59;79.29;100313.78;5011722;28;20045;-87
2022/10/20 00:58:42;;;;;;;35.30;15.68;;;;;;;12.69;78.70;100309.31;5008047;28;20133;-87
2022/10/20 01:01:09;;;;;;;26.95;14.50;;;;;;;12.78;78.35;100294.34;5013708;28;20118;-87
2022/10/20 01:03:44;;;;;;;25.08;13.63;;;;;;;12.72;77.69;100282.41;5024355;28;20048;-86
2022/10/20 01:06:15;;;;;;;30.30;14.43;;;;;;;12.47;78.38;100280.28;4986060;28;20045;-87
2022/10/20 01:08:42;;;;;;;25.92;14.77;;;;;;;12.56;78.49;100279.44;5004067;28;20132;-86
2022/10/20 01:11:19;;;;;;;24.60;12.93;;;;;;;12.49;78.20;100276.50;4979424;28;20055;-86
2022/10/20 01:14:08;;;;;;;28.05;13.85;;;;;;;12.46;78.34;100283.91;4977926;28;20051;-86
2022/10/20 01:16:41;;;;;;;30.23;13.95;;;;;;;12.44;78.89;100278.72;4960641;28;20468;-86
2022/10/20 01:19:36;;;;;;;27.80;14.48;;;;;;;12.24;78.58;100285.81;5001935;28;20385;-87
2022/10/20 01:22:16;;;;;;;34.55;14.85;;;;;;;12.38;78.25;100272.09;4952505;28;20076;-87
2022/10/20 01:25:00;;;;;;;24.98;13.77;;;;;;;12.25;78.46;100279.50;5030768;28;20102;-87
2022/10/20 01:27:37;;;;;;;27.33;14.70;;;;;;;12.22;78.21;100269.13;5012901;28;20045;-87
2022/10/20 01:30:08;;;;;;;30.67;13.98;;;;;;;12.36;77.73;100266.09;5014390;28;20573;-86
2022/10/20 01:32:41;;;;;;;27.83;14.48;;;;;;;12.43;77.82;100270.88;5045518;28;20044;-86
2022/10/20 01:35:24;;;;;;;25.55;13.57;;;;;;;12.37;77.87;100274.91;5013623;28;20068;-87
2022/10/20 01:38:06;;;;;;;29.00;14.27;;;;;;;12.21;77.66;100275.41;5028177;28;20041;-86
2022/10/20 01:40:39;;;;;;;30.13;14.25;;;;;;;12.23;77.90;100265.47;4941618;28;20048;-86
2022/10/20 01:43:09;;;;;;;26.42;13.32;;;;;;;12.17;78.04;100274.03;4969366;28;20050;-87
2022/10/20 01:45:37;;;;;;;28.65;14.68;;;;;;;12.18;77.79;100273.03;4974087;28;20061;-86
2022/10/20 01:48:05;;;;;;;29.38;13.90;;;;;;;12.19;77.45;100273.88;4964165;28;22000;-87
2022/10/20 01:50:33;;;;;;;22.60;13.55;;;;;;;12.25;77.42;100260.88;4976409;28;20491;-87
2022/10/20 01:53:00;;;;;;;25.63;13.88;;;;;;;12.33;77.49;100257.53;4984496;28;20074;-87
2022/10/20 01:55:27;;;;;;;23.88;13.10;;;;;;;12.33;77.29;100260.19;4993067;28;20046;-87
2022/10/20 01:58:18;;;;;;;23.40;13.32;;;;;;;12.18;76.88;100248.22;4974978;28;20039;-87
2022/10/20 02:00:45;;;;;;;27.63;13.43;;;;;;;12.31;77.54;100249.69;4930532;28;20481;-87
2022/10/20 02:03:27;;;;;;;28.23;13.48;;;;;;;12.22;76.62;100252.31;4969187;28;20046;-87
2022/10/20 02:06:16;;;;;;;28.15;13.70;;;;;;;12.25;77.12;100242.22;4985036;28;20089;-88
2022/10/20 02:08:58;;;;;;;24.13;13.25;;;;;;;12.25;77.27;100244.88;4954824;28;20490;-87
2022/10/20 02:11:44;;;;;;;25.73;11.80;;;;;;;12.28;76.80;100233.97;4983558;28;20709;-87
2022/10/20 02:14:13;;;;;;;24.50;13.65;;;;;;;12.08;76.72;100238.38;4986057;28;20036;-87
2022/10/20 02:16:45;;;;;;;26.25;13.82;;;;;;;12.15;76.41;100220.91;5029842;28;20045;-87
2022/10/20 02:19:14;;;;;;;22.58;12.27;;;;;;;12.07;76.67;100225.22;5037728;28;20047;-87
2022/10/20 02:21:41;;;;;;;29.92;14.00;;;;;;;11.89;77.27;100223.22;5022085;28;20051;-87
2022/10/20 02:24:08;;;;;;;27.38;12.88;;;;;;;12.09;76.97;100229.44;5058744;28;20049;-87
2022/10/20 02:26:37;;;;;;;29.35;13.60;;;;;;;11.97;77.45;100224.34;5008133;28;20108;-87
2022/10/20 02:29:11;;;;;;;21.77;12.98;;;;;;;11.85;76.50;100215.59;5014943;28;20361;-88
2022/10/20 02:31:38;;;;;;;21.85;13.15;;;;;;;11.89;77.17;100217.06;5038102;28;20049;-87
2022/10/20 02:34:06;;;;;;;23.05;13.02;;;;;;;11.89;76.91;100217.88;5023218;28;20045;-87
2022/10/20 02:36:37;;;;;;;29.60;13.43;;;;;;;11.76;76.90;100221.75;5012203;28;20068;-86
2022/10/20 02:39:04;;;;;;;23.67;12.32;;;;;;;11.81;77.06;100215.03;5012273;28;20044;-87
2022/10/20 02:41:31;;;;;;;24.35;12.73;;;;;;;11.88;77.03;100213.56;5050590;28;20092;-87
2022/10/20 02:43:58;;;;;;;25.52;12.93;;;;;;;11.91;76.95;100189.31;5012458;28;20045;-87
2022/10/20 02:46:25;;;;;;;23.77;12.73;;;;;;;11.66;76.90;100190.59;5043810;28;20040;-87
2022/10/20 02:48:52;;;;;;;23.58;12.73;;;;;;;11.82;76.89;100186.59;5015220;28;20396;-87
2022/10/20 02:51:19;;;;;;;25.73;12.70;;;;;;;11.85;76.62;100204.94;5042618;28;20040;-87
2022/10/20 02:53:46;;;;;;;26.25;12.57;;;;;;;11.89;76.57;100201.09;5027732;28;20121;-86
2022/10/20 02:56:12;;;;;;;26.48;12.77;;;;;;;11.88;76.73;100194.06;5029839;28;20056;-87
2022/10/20 02:58:39;;;;;;;27.02;13.52;;;;;;;11.84;76.54;100205.94;5048791;28;20051;-87
2022/10/20 03:01:06;;;;;;;22.77;13.18;;;;;;;11.81;76.56;100195.56;5046397;28;20044;-87
2022/10/20 03:03:33;;;;;;;25.95;12.48;;;;;;;11.88;76.33;100197.59;5010939;28;20045;-87
2022/10/20 03:06:11;;;;;;;24.48;12.90;;;;;;;11.80;75.78;100197.38;5026343;28;20570;-87
2022/10/20 03:08:38;;;;;;;23.48;13.00;;;;;;;11.76;75.98;100195.97;5013121;28;20103;-87
2022/10/20 03:11:05;;;;;;;28.30;13.30;;;;;;;11.84;75.78;100203.28;5009423;28;20076;-86
2022/10/20 03:13:32;;;;;;;23.65;13.13;;;;;;;11.76;76.17;100206.63;5039656;28;20045;-86
2022/10/20 03:16:00;;;;;;;25.35;13.80;;;;;;;11.78;75.91;100212.66;5014748;28;20056;-87
2022/10/20 03:18:27;;;;;;;32.05;12.90;;;;;;;11.80;76.17;100216.00;5012394;28;20049;-87
2022/10/20 03:20:54;;;;;;;22.48;13.10;;;;;;;11.69;76.18;100218.75;5026989;28;20523;-87
2022/10/20 03:23:21;;;;;;;24.38;12.70;;;;;;;11.76;76.22;100219.91;5026480;28;20047;-88
2022/10/20 03:25:51;;;;;;;22.73;13.23;;;;;;;11.81;76.19;100201.72;5026703;28;20099;-88
2022/10/20 03:28:18;;;;;;;22.30;12.68;;;;;;;11.78;75.87;100215.31;5008298;28;20423;-87
2022/10/20 03:30:45;;;;;;;25.23;13.30;;;;;;;11.79;76.19;100208.16;5042882;28;20044;-87
2022/10/20 03:33:12;;;;;;;21.70;12.07;;;;;;;11.79;76.21;100197.50;5028573;28;20040;-87
2022/10/20 03:35:39;;;;;;;29.80;14.00;;;;;;;11.59;76.43;100183.28;5039240;28;20052;-87
2022/10/20 03:38:06;;;;;;;26.70;12.15;;;;;;;11.66;76.54;100189.78;5014216;28;20050;-87
2022/10/20 03:40:32;;;;;;;30.65;13.52;;;;;;;11.69;76.37;100202.78;5017175;28;20048;-86
2022/10/20 03:42:59;;;;;;;24.55;13.25;;;;;;;11.55;76.56;100201.34;5025407;28;20056;-86
2022/10/20 03:45:26;;;;;;;27.75;14.20;;;;;;;11.51;77.07;100203.41;5045895;28;20040;-85
2022/10/20 03:47:52;;;;;;;25.52;13.75;;;;;;;11.56;77.00;100202.19;5027710;28;20451;-85
2022/10/20 03:50:19;;;;;;;26.45;13.77;;;;;;;11.50;76.37;100204.41;5004694;28;20040;-86
2022/10/20 03:52:47;;;;;;;26.40;14.30;;;;;;;11.50;76.92;100198.25;5013173;28;20049;-86
2022/10/20 03:55:15;;;;;;;25.38;13.75;;;;;;;11.51;76.50;100206.06;5039029;28;20044;-86
2022/10/20 03:57:41;;;;;;;29.55;14.02;;;;;;;11.41;76.71;100191.06;5041821;28;20049;-86
2022/10/20 04:00:09;;;;;;;24.92;13.13;;;;;;;11.51;76.70;100183.97;5044334;28;20124;-86
2022/10/20 04:02:43;;;;;;;24.25;13.10;;;;;;;11.50;76.66;100192.94;5040216;28;20048;-87
2022/10/20 04:05:12;;;;;;;30.83;13.80;;;;;;;11.41;77.11;100185.72;5042551;28;20076;-87
2022/10/20 04:07:39;;;;;;;27.40;14.13;;;;;;;11.51;76.79;100186.63;5022058;28;20043;-87
2022/10/20 04:10:07;;;;;;;29.05;14.60;;;;;;;11.29;77.66;100175.16;5044844;28;20056;-86
2022/10/20 04:12:34;;;;;;;28.25;14.32;;;;;;;11.37;77.22;100171.88;5026039;28;20108;-86
2022/10/20 04:15:01;;;;;;;26.83;14.25;;;;;;;11.25;77.49;100163.13;5015865;28;20047;-87
2022/10/20 04:17:28;;;;;;;24.00;13.10;;;;;;;11.35;77.26;100159.66;5015022;28;20404;-87
2022/10/20 04:19:55;;;;;;;26.10;14.35;;;;;;;11.14;77.63;100147.25;5029630;28;20041;-87
2022/10/20 04:22:22;;;;;;;27.02;14.52;;;;;;;11.18;77.94;100150.50;5036005;28;20044;-87
2022/10/20 04:24:49;;;;;;;33.13;15.18;;;;;;;11.14;78.05;100152.56;5045050;28;20041;-86
2022/10/20 04:27:16;;;;;;;25.23;14.35;;;;;;;11.25;77.89;100144.53;5014808;28;20060;-86
2022/10/20 04:29:42;;;;;;;30.67;14.25;;;;;;;11.35;77.52;100146.38;5053615;28;20099;-86
2022/10/20 04:32:09;;;;;;;30.58;13.95;;;;;;;11.35;77.56;100159.66;5046138;28;20094;-87
2022/10/20 04:34:36;;;;;;;31.40;14.43;;;;;;;11.47;77.22;100146.16;5043955;28;20081;-86
2022/10/20 04:37:03;;;;;;;29.67;15.27;;;;;;;11.35;77.90;100147.22;5010520;28;20052;-88
2022/10/20 04:39:29;;;;;;;27.30;14.57;;;;;;;11.39;77.67;100143.31;5041929;28;20392;-87
2022/10/20 04:41:56;;;;;;;29.88;14.45;;;;;;;11.44;77.62;100151.72;5016339;28;22244;-87
2022/10/20 04:44:23;;;;;;;25.10;13.25;;;;;;;11.43;77.46;100142.09;5030410;28;20044;-87
2022/10/20 04:46:50;;;;;;;30.83;15.05;;;;;;;11.40;77.71;100138.88;5007085;28;20091;-87
2022/10/20 04:49:16;;;;;;;28.00;15.00;;;;;;;11.36;77.63;100148.06;5006574;28;20037;-86
2022/10/20 04:51:43;;;;;;;29.05;14.48;;;;;;;11.44;77.52;100151.72;5053626;28;20490;-86
2022/10/20 04:54:10;;;;;;;27.02;14.90;;;;;;;11.45;77.31;100149.94;5044365;28;20045;-86
2022/10/20 04:56:37;;;;;;;29.38;15.40;;;;;;;11.45;77.56;100144.63;5030079;28;20049;-86
2022/10/20 04:59:04;;;;;;;36.08;15.40;;;;;;;11.34;77.94;100136.72;5047274;28;20076;-87
2022/10/20 05:01:36;;;;;;;30.40;14.55;;;;;;;11.42;78.06;100137.75;5031648;28;20458;-87
2022/10/20 05:04:03;;;;;;;31.20;15.55;;;;;;;11.52;77.57;100140.41;5025828;28;20124;-86
2022/10/20 05:06:31;;;;;;;30.52;15.52;;;;;;;11.52;77.73;100138.63;5026829;28;20435;-87
2022/10/20 05:09:00;;;;;;;29.73;15.25;;;;;;;11.52;77.66;100137.75;5047692;28;20044;-87
2022/10/20 05:11:29;;;;;;;30.95;16.23;;;;;;;11.54;77.90;100127.84;5022788;28;20047;-87
2022/10/20 05:13:56;;;;;;;30.60;15.40;;;;;;;11.48;77.89;100117.75;5030951;28;20395;-87
2022/10/20 05:16:22;;;;;;;31.55;15.50;;;;;;;11.48;78.47;100113.28;5030401;28;20414;-87
2022/10/20 05:18:51;;;;;;;37.13;16.30;;;;;;;11.48;78.47;100105.28;5030852;28;20044;-84
2022/10/20 05:21:20;;;;;;;35.72;16.20;;;;;;;11.41;78.74;100104.13;5029330;28;20046;-84
2022/10/20 05:23:46;;;;;;;28.98;16.67;;;;;;;11.45;78.73;100102.06;5038244;28;20045;-84
2022/10/20 05:26:15;;;;;;;33.90;15.63;;;;;;;11.36;79.12;100098.38;5042166;28;20044;-83
2022/10/20 05:28:46;;;;;;;36.25;17.27;;;;;;;11.39;79.11;100097.28;5029429;28;20044;-84
2022/10/20 05:31:14;;;;;;;42.20;17.85;;;;;;;11.39;79.43;100098.09;5002750;28;20048;-83
2022/10/20 05:33:46;;;;;;;35.22;17.80;;;;;;;11.26;79.60;100094.84;5041263;28;20131;-85
2022/10/20 05:36:15;;;;;;;32.03;16.95;;;;;;;11.27;79.97;100094.72;5036207;28;20047;-85
2022/10/20 05:38:47;;;;;;;32.88;15.88;;;;;;;11.34;79.79;100089.69;5011614;28;20061;-85
2022/10/20 05:41:16;;;;;;;32.40;16.27;;;;;;;11.37;79.91;100092.13;5038794;28;20064;-85
2022/10/20 05:43:48;;;;;;;36.45;16.92;;;;;;;11.44;79.47;100090.56;5053104;28;20068;-85
2022/10/20 05:46:15;;;;;;;36.72;17.45;;;;;;;11.52;79.54;100088.09;4998567;28;22342;-85
2022/10/20 05:48:41;;;;;;;36.33;16.55;;;;;;;11.40;80.19;100089.19;5033014;28;20147;-84
2022/10/20 05:51:30;;;;;;;37.55;16.45;;;;;;;11.47;80.00;100082.34;5028969;28;20037;-84
2022/10/20 05:53:58;;;;;;;36.92;17.13;;;;;;;11.52;80.01;100079.25;5031747;28;20111;-85
2022/10/20 05:56:26;;;;;;;43.25;16.77;;;;;;;11.58;79.66;100078.72;5051473;28;20102;-85
2022/10/20 05:58:53;;;;;;;37.95;17.95;;;;;;;11.46;80.61;100072.66;5037472;28;20072;-85
2022/10/20 06:01:23;;;;;;;36.13;17.50;;;;;;;11.42;80.66;100068.63;5041445;28;20115;-85
2022/10/20 06:03:57;;;;;;;32.85;17.83;;;;;;;11.27;80.98;100073.47;5015292;28;20476;-85
2022/10/20 06:06:29;;;;;;;34.63;18.70;;;;;;;11.39;80.83;100081.31;5026805;28;20488;-85
2022/10/20 06:08:57;;;;;;;34.45;16.67;;;;;;;11.47;80.71;100077.03;5053375;28;20052;-85
2022/10/20 06:11:25;;;;;;;35.92;17.88;;;;;;;11.43;80.76;100082.75;5037196;28;20045;-85
2022/10/20 06:13:52;;;;;;;33.85;16.60;;;;;;;11.42;80.78;100073.94;5050634;28;20071;-85
2022/10/20 06:16:23;;;;;;;41.40;16.00;;;;;;;11.41;81.14;100074.91;5034734;28;21099;-85
2022/10/20 06:18:50;;;;;;;36.58;16.90;;;;;;;11.52;80.63;100076.59;5035338;28;20518;-84
2022/10/20 06:21:25;;;;;;;41.08;18.25;;;;;;;11.40;81.26;100085.69;5036774;28;20080;-85
2022/10/20 06:23:52;;;;;;;36.63;17.42;;;;;;;11.46;81.25;100080.66;5032113;28;20488;-85
2022/10/20 06:26:21;;;;;;;43.95;18.65;;;;;;;11.43;81.27;100090.72;5023704;28;20072;-85
2022/10/20 06:28:53;;;;;;;34.60;17.48;;;;;;;11.41;81.29;100082.88;5041152;28;20054;-85
2022/10/20 06:31:23;;;;;;;39.35;20.27;;;;;;;11.45;81.23;100084.28;5047505;28;20095;-85
2022/10/20 06:33:51;;;;;;;36.28;17.48;;;;;;;11.49;81.18;100088.34;5017750;28;20095;-85
2022/10/20 06:36:18;;;;;;;35.75;17.73;;;;;;;11.56;80.81;100093.97;5027042;28;20037;-85
2022/10/20 06:38:45;;;;;;;39.47;18.05;;;;;;;11.49;81.42;100091.00;5015647;28;20048;-85
2022/10/20 06:41:16;;;;;;;39.45;18.10;;;;;;;11.50;81.29;100106.00;5031003;28;20515;-84
2022/10/20 06:43:43;;;;;;;35.55;17.15;;;;;;;11.55;81.26;100110.91;5023396;28;20102;-85
2022/10/20 06:46:12;;;;;;;35.65;18.13;;;;;;;11.58;81.33;100105.31;5052893;28;20041;-84
2022/10/20 06:48:39;;;;;;;35.65;17.58;;;;;;;11.58;81.22;100105.31;5030110;28;20041;-84
2022/10/20 06:51:09;;;;;;;40.08;18.70;;;;;;;11.57;81.25;100110.78;5043734;28;20048;-85
2022/10/20 06:53:36;;;;;;;37.90;18.30;;;;;;;11.54;81.63;100111.03;5032789;28;20413;-84
2022/10/20 06:56:08;;;;;;;35.03;17.83;;;;;;;11.66;81.05;100109.97;5010818;28;20092;-85
2022/10/20 06:58:35;;;;;;;46.13;18.30;;;;;;;11.66;81.37;100110.81;5052504;28;20467;-83
2022/10/20 07:01:08;;;;;;;34.92;18.80;;;;;;;11.55;81.80;100102.06;5025915;28;20049;-85
2022/10/20 07:03:37;;;;;;;40.05;17.50;;;;;;;11.57;81.32;100095.66;5007603;28;20565;-84
2022/10/20 07:06:05;;;;;;;33.40;18.42;;;;;;;11.71;81.11;100084.63;5038848;28;20132;-85
2022/10/20 07:08:34;;;;;;;32.28;17.40;;;;;;;11.69;81.27;100083.09;5036517;28;20064;-85
2022/10/20 07:11:01;;;;;;;39.53;18.80;;;;;;;11.69;81.40;100085.75;5052364;28;20052;-84
2022/10/20 07:13:28;;;;;;;42.53;18.98;;;;;;;11.63;81.73;100086.31;5033707;28;20044;-85
2022/10/20 07:15:58;;;;;;;43.78;18.98;;;;;;;11.57;81.75;100090.31;5051654;28;20072;-85
2022/10/20 07:18:26;;;;;;;44.78;19.65;;;;;;;11.63;81.80;100100.44;5037563;28;20040;-85
2022/10/20 07:20:58;;;;;;;37.15;19.08;;;;;;;11.69;81.59;100093.72;5038091;28;20413;-85
2022/10/20 07:23:26;;;;;;;37.30;19.15;;;;;;;11.65;82.09;100092.31;5050698;28;20037;-85
2022/10/20 07:26:02;;;;;;;38.60;19.98;;;;;;;11.66;81.96;100084.19;5033065;28;20479;-85
2022/10/20 07:28:29;;;;;;;38.50;18.50;;;;;;;11.74;81.97;100089.66;5023595;28;20053;-85
2022/10/20 07:30:57;;;;;;;42.25;19.23;;;;;;;11.67;82.15;100093.03;5038723;28;20083;-85
2022/10/20 07:33:24;;;;;;;43.50;17.83;;;;;;;11.79;81.81;100097.25;5042736;28;20128;-85
2022/10/20 07:35:51;;;;;;;37.63;18.88;;;;;;;11.83;81.75;100109.31;5056701;28;20393;-84
2022/10/20 07:38:17;;;;;;;37.83;17.25;;;;;;;11.66;82.54;100116.13;5035768;28;20040;-85
2022/10/20 07:40:44;;;;;;;39.85;19.17;;;;;;;11.85;82.16;100103.84;5034286;28;20083;-85
2022/10/20 07:43:10;;;;;;;39.45;18.08;;;;;;;11.97;81.70;100099.28;5054140;28;20048;-84
2022/10/20 07:45:37;;;;;;;39.33;20.00;;;;;;;11.98;82.09;100104.44;5042996;28;20055;-85
2022/10/20 07:48:05;;;;;;;43.53;19.27;;;;;;;12.00;82.09;100099.00;5042974;28;20049;-85
2022/10/20 07:50:32;;;;;;;43.65;19.05;;;;;;;12.01;82.18;100104.19;5048183;28;20044;-85
2022/10/20 07:52:59;;;;;;;34.22;18.58;;;;;;;12.03;82.04;100107.53;5057424;28;20064;-85
2022/10/20 07:55:26;;;;;;;44.95;20.88;;;;;;;11.98;82.49;100112.44;5023978;28;20044;-85
2022/10/20 07:58:05;;;;;;;45.45;17.65;;;;;;;12.05;82.29;100105.56;5030306;28;20471;-85
2022/10/20 08:00:31;;;;;;;36.80;18.45;;;;;;;12.10;82.55;100103.34;5043886;28;20500;-85
2022/10/20 08:02:58;;;;;;;44.05;18.67;;;;;;;12.12;82.76;100103.22;5058077;28;20078;-85
2022/10/20 08:05:25;;;;;;;34.42;18.88;;;;;;;12.13;82.96;100096.91;5037609;28;20041;-85
2022/10/20 08:07:52;;;;;;;42.78;19.98;;;;;;;12.13;83.12;100091.56;5024688;28;20114;-84
2022/10/20 08:10:19;;;;;;;42.65;19.63;;;;;;;12.20;83.24;100086.53;5046130;28;20410;-85
2022/10/20 08:12:45;;;;;;;37.35;18.20;;;;;;;12.22;83.31;100106.72;5060108;28;20044;-84
2022/10/20 08:15:12;;;;;;;40.60;20.05;;;;;;;12.29;83.48;100096.38;5054874;28;20056;-84
2022/10/20 08:17:48;;;;;;;37.47;18.88;;;;;;;12.29;83.27;100093.69;5013273;28;20040;-84
2022/10/20 08:20:14;;;;;;;40.67;19.13;;;;;;;12.33;83.09;100082.59;5058106;28;20495;-85
2022/10/20 08:22:43;;;;;;;39.25;18.45;;;;;;;12.32;83.42;100072.13;5046167;28;20686;-84
2022/10/20 08:25:13;;;;;;;39.58;19.13;;;;;;;12.34;83.54;100067.50;5060896;28;20446;-85
2022/10/20 08:27:40;;;;;;;38.13;18.95;;;;;;;12.35;83.71;100063.84;5030667;28;20041;-85
2022/10/20 08:30:07;;;;;;;37.63;18.35;;;;;;;12.39;83.78;100062.59;5039935;28;20053;-84
2022/10/20 08:32:53;;;;;;;36.67;19.40;;;;;;;12.42;84.22;100061.47;4984729;28;20051;-85
2022/10/20 08:35:20;;;;;;;35.42;19.15;;;;;;;12.49;84.10;100058.09;5037473;28;20076;-85
2022/10/20 08:37:47;;;;;;;41.42;19.65;;;;;;;12.56;83.58;100048.50;5038609;28;20574;-85
2022/10/20 08:40:20;;;;;;;44.55;18.70;;;;;;;12.56;84.54;100056.50;5056913;28;20514;-85
2022/10/20 08:42:47;;;;;;;;;;;;;;;12.49;85.48;100062.53;5028370;28;20055;-85
2022/10/20 08:45:24;;;;;;;34.88;17.30;;;;;;;12.63;83.94;100051.44;5042337;28;20397;-85
2022/10/20 08:47:53;;;;;;;35.13;18.92;;;;;;;12.65;84.15;100052.16;5053250;28;20562;-85
2022/10/20 08:50:21;;;;;;;37.70;19.25;;;;;;;12.65;84.39;100056.66;5054220;28;20045;-85
2022/10/20 08:52:53;;;;;;;37.00;18.48;;;;;;;12.74;84.46;100061.09;5049688;28;20068;-85
2022/10/20 08:55:27;;;;;;;32.27;17.97;;;;;;;12.80;84.70;100053.38;5031051;28;20050;-84
2022/10/20 08:58:02;;;;;;;41.92;20.23;;;;;;;12.82;85.15;100050.53;5056767;28;20517;-87
2022/10/20 09:00:30;;;;;;;35.70;19.83;;;;;;;12.89;84.88;100046.31;5042283;28;20041;-86
2022/10/20 09:03:21;;;;;;;33.83;17.48;;;;;;;12.89;85.13;100050.81;5042343;28;20040;-85
2022/10/20 09:05:55;;;;;;;40.55;19.13;;;;;;;12.96;84.39;100051.94;5008490;28;20045;-85
2022/10/20 09:08:25;;;;;;;37.53;18.63;;;;;;;12.98;84.31;100040.13;5014090;28;20053;-86
2022/10/20 09:10:53;;;;;;;35.95;19.20;;;;;;;12.99;84.61;100030.31;5045374;28;22364;-86
2022/10/20 09:13:23;;;;;;;41.38;19.23;;;;;;;12.99;84.94;100046.28;5020796;28;20127;-86
2022/10/20 09:15:53;;;;;;;35.30;18.88;;;;;;;13.09;84.33;100051.59;5042727;28;20128;-86
2022/10/20 09:18:19;;;;;;;38.38;19.30;;;;;;;13.11;84.71;100062.97;5032580;28;20038;-86
2022/10/20 09:20:59;;;;;;;37.92;18.73;;;;;;;13.12;85.18;100073.47;5036214;28;20068;-86
2022/10/20 09:23:44;;;;;;;33.85;17.70;;;;;;;13.09;85.42;100062.25;5009901;28;20048;-86
2022/10/20 09:26:39;;;;;;;35.50;20.15;;;;;;;13.06;85.51;100054.56;5021466;28;20040;-86
2022/10/20 09:29:37;;;;;;;38.40;18.35;;;;;;;13.11;85.10;100055.78;4978327;28;20049;-85
2022/10/20 09:32:16;;;;;;;31.00;17.30;;;;;;;13.13;85.08;100045.00;5038429;28;20076;-86
2022/10/20 09:35:30;;;;;;;36.20;19.13;;;;;;;13.15;85.87;100054.53;5014097;28;20052;-85
2022/10/20 09:38:09;;;;;;;34.72;18.02;;;;;;;13.18;86.23;100062.22;4974085;28;20037;-86
2022/10/20 09:40:45;;;;;;;34.33;18.98;;;;;;;13.23;85.69;100067.97;5017102;28;20064;-84
2022/10/20 09:43:15;;;;;;;32.78;17.90;;;;;;;13.32;85.62;100068.09;5046340;28;20044;-86
2022/10/20 09:45:52;;;;;;;33.08;18.58;;;;;;;13.34;86.25;100058.94;5044686;28;20041;-87
2022/10/20 09:48:25;;;;;;;28.58;16.90;;;;;;;13.41;85.54;100062.72;5038017;28;20044;-87
2022/10/20 09:50:57;;;;;;;33.05;19.25;;;;;;;13.52;85.33;100053.66;5045959;28;20099;-87
2022/10/20 09:53:27;;;;;;;32.75;17.58;;;;;;;13.55;85.72;100050.69;4997177;28;20045;-87
2022/10/20 09:55:54;;;;;;;37.53;17.70;;;;;;;13.63;85.42;100056.09;5019703;28;20044;-86
2022/10/20 09:58:34;;;;;;;30.95;16.77;;;;;;;13.61;85.65;100060.78;5032127;28;20037;-86
2022/10/20 10:01:11;;;;;;;32.13;16.77;;;;;;;13.72;85.61;100050.88;5034642;28;20106;-86
2022/10/20 10:03:40;;;;;;;28.33;14.77;;;;;;;13.76;85.73;100046.91;4969076;28;20061;-86
2022/10/20 10:06:28;;;;;;;29.27;15.23;;;;;;;13.72;86.32;100051.72;4988590;28;20505;-86
2022/10/20 10:08:57;;;;;;;30.33;14.45;;;;;;;13.82;85.80;100052.47;4935223;28;20484;-87
2022/10/20 10:11:30;;;;;;;26.70;14.88;;;;;;;13.84;85.47;100046.97;4983687;28;20081;-87
2022/10/20 10:13:56;;;;;;;;;;;;;;;13.66;86.77;100053.16;4970812;28;20425;-87
2022/10/20 10:16:23;;;;;;;28.63;14.85;;;;;;;13.84;85.75;100052.31;4986309;28;19922;-86
2022/10/20 10:19:01;;;;;;;29.42;14.15;;;;;;;13.81;86.53;100052.63;4993009;28;20245;-86
2022/10/20 10:21:29;;;;;;;33.50;17.23;;;;;;;13.83;86.09;100054.16;4952918;28;20101;-86
2022/10/20 10:24:00;;;;;;;25.10;14.98;;;;;;;13.84;85.96;100055.84;4985552;28;20049;-86
2022/10/20 10:26:52;;;;;;;25.75;14.50;;;;;;;13.80;86.14;100067.81;4975482;28;20121;-86
2022/10/20 10:29:32;;;;;;;28.70;14.43;;;;;;;13.87;86.00;100066.22;4959769;28;20580;-86
2022/10/20 10:32:12;;;;;;;28.42;15.35;;;;;;;13.96;85.76;100064.44;4974936;28;20486;-86
2022/10/20 10:34:46;;;;;;;27.70;15.68;;;;;;;13.93;86.16;100063.94;4972339;28;20439;-87
2022/10/20 10:37:14;;;;;;;25.52;13.20;;;;;;;14.02;85.54;100060.34;5022633;28;20072;-85
2022/10/20 10:39:41;;;;;;;24.90;14.07;;;;;;;14.03;86.27;100054.84;5036405;28;20041;-86
2022/10/20 10:42:29;;;;;;;26.83;13.88;;;;;;;14.04;85.70;100045.88;5052810;28;20049;-87
2022/10/20 10:45:02;;;;;;;20.95;12.00;;;;;;;14.16;85.69;100042.94;4997294;28;20777;-86
2022/10/20 10:48:10;;;;;;;25.25;14.23;;;;;;;14.09;86.86;100043.56;5030904;28;20090;-87
2022/10/20 10:50:59;;;;;;;24.92;13.07;;;;;;;14.17;85.94;100047.28;4970971;28;20045;-87
2022/10/20 10:53:38;;;;;;;29.83;14.77;;;;;;;14.10;86.25;100042.56;4985536;28;20045;-86
2022/10/20 10:56:15;;;;;;;24.40;15.15;;;;;;;14.09;86.00;100034.69;4993628;28;20051;-87
2022/10/20 10:59:03;;;;;;;25.90;12.82;;;;;;;14.04;86.43;100028.97;4926206;28;20116;-87
2022/10/20 11:01:50;;;;;;;27.42;13.98;;;;;;;14.03;86.33;100020.13;4978711;28;20133;-86
2022/10/20 11:04:35;;;;;;;25.58;14.05;;;;;;;14.04;86.89;100005.81;4955095;28;20054;-86
2022/10/20 11:07:27;;;;;;;23.95;14.15;;;;;;;14.10;87.11;100013.19;4961379;28;20054;-86
2022/10/20 11:10:15;;;;;;;27.38;15.25;;;;;;;14.09;87.05;100021.34;4970177;28;20097;-86
2022/10/20 11:12:56;;;;;;;28.42;13.73;;;;;;;14.15;86.42;100011.91;4951381;28;20084;-86
2022/10/20 11:15:48;;;;;;;23.30;13.80;;;;;;;14.19;86.28;100014.09;4963761;28;20073;-87
2022/10/20 11:18:47;;;;;;;26.80;13.25;;;;;;;14.21;87.52;99987.25;4963902;28;20093;-87
2022/10/20 11:21:20;;;;;;;30.42;14.10;;;;;;;14.31;86.66;99980.81;4924683;28;20089;-86
2022/10/20 11:23:52;;;;;;;19.45;12.50;;;;;;;14.38;86.49;99981.03;4993233;28;20064;-87
2022/10/20 11:26:34;;;;;;;19.95;12.10;;;;;;;14.43;86.77;99978.72;4986076;28;20091;-84
2022/10/20 11:29:04;;;;;;;19.67;11.13;;;;;;;14.51;86.64;99969.91;5002697;28;20056;-86